Terminal Aerodrome Forecast
Issued by NWS Duluth, MN

Home | Current Version | Previous Version | Text Only | Print | Product List | Glossary On
Versions: 1 2 3 4 5 6 7 8 9 10 11 12 13 14 15 16 17 18 19
000
FTUS43 KDLH 201731
TAFINL
TAF
KINL 201731Z 2018/2118 15010G17KT P6SM SCT250
     FM210200 17011KT P6SM SCT250 WS020/19040KT
     FM210800 17008G16KT P6SM -SHRA BKN050
     FM211500 17012G19KT P6SM VCSH OVC025=

USA.gov is the U.S. government's official web portal to all federal, state and local government web resources and services.